Cope, Colorado
Current Conditions -  °F | °C
As of 11:53 AM on Friday 24 Oct 2014 (Local Time) from KAKO Reporting Station
Clear Clear  
Wind Chill: 73°   Ceiling: Unl
Heat Index: 73°   Visibility: 10mi
Dew Point: 33°   Wind: 15mph
Humidity: 23%   Direction: 260°W
Pressure: 30.16"   Gusts: NA
Location:  39.66°N, 102.85°W
Report Text: KAKO 241753Z AUTO 26013KT 10SM CLR 23/01 A3016 RMK AO2 SLP167 T02280006 10228 20111 51007
Loading
Personal Weather Stations






























Interactive Weather Map
Tropical Storm Tracking
New forecast layout! Learn more

10-Day Weather Forecast

Advertisements
Track Severe Weather on mobile